createdAt,value
2018-04-27T00:01:59.161Z,10.70
2018-04-27T00:04:26.699Z,10.70
2018-04-27T00:06:54.276Z,11.37
2018-04-27T00:09:21.807Z,11.10
2018-04-27T00:11:49.349Z,10.93
2018-04-27T00:14:16.892Z,11.10
2018-04-27T00:16:44.467Z,10.87
2018-04-27T00:19:12.035Z,11.43
2018-04-27T00:21:39.607Z,10.43
2018-04-27T00:24:07.149Z,10.60
2018-04-27T00:26:34.688Z,11.00
2018-04-27T00:29:02.276Z,9.80
2018-04-27T00:31:29.844Z,9.30
2018-04-27T00:33:57.441Z,9.77
2018-04-27T00:36:25.030Z,10.53
2018-04-27T00:38:52.568Z,10.20
2018-04-27T00:41:20.109Z,10.47
2018-04-27T00:43:47.695Z,10.77
2018-04-27T00:46:15.261Z,10.57
2018-04-27T00:48:42.799Z,11.03
2018-04-27T00:51:10.338Z,11.20
2018-04-27T00:53:37.876Z,11.00
2018-04-27T00:56:05.454Z,10.17
2018-04-27T00:58:32.995Z,10.40
2018-04-27T01:01:00.524Z,11.80
2018-04-27T01:03:28.108Z,11.97
2018-04-27T01:05:55.701Z,11.70
2018-04-27T01:08:23.243Z,10.63
2018-04-27T01:10:50.813Z,11.47
2018-04-27T01:13:18.348Z,10.90
2018-04-27T01:15:45.875Z,11.67
2018-04-27T01:18:13.411Z,10.83
2018-04-27T01:20:40.943Z,10.67
2018-04-27T01:23:08.511Z,11.03
2018-04-27T01:25:36.037Z,10.80
2018-04-27T01:28:03.577Z,10.93
2018-04-27T01:30:31.128Z,10.43
2018-04-27T01:32:58.673Z,11.37
2018-04-27T01:35:26.215Z,11.00
2018-04-27T01:37:53.753Z,11.07
2018-04-27T01:40:21.297Z,12.57
2018-04-27T01:42:48.842Z,12.13
2018-04-27T01:45:16.380Z,12.40
2018-04-27T01:47:43.924Z,11.43
2018-04-27T01:50:11.459Z,12.00
2018-04-27T01:52:39.010Z,12.50
2018-04-27T01:55:06.551Z,13.13
2018-04-27T01:57:34.087Z,12.73
2018-04-27T02:00:01.763Z,12.17
2018-04-27T02:02:29.250Z,13.03
2018-04-27T02:04:56.800Z,13.30
2018-04-27T02:07:24.345Z,13.83
2018-04-27T02:09:51.888Z,13.47
2018-04-27T02:12:19.426Z,14.40
2018-04-27T02:14:46.984Z,19.50
2018-04-27T02:17:14.530Z,12.37
2018-04-27T02:19:42.068Z,12.33
2018-04-27T02:22:09.616Z,12.77
2018-04-27T02:24:37.165Z,12.13
2018-04-27T02:27:04.697Z,12.67
2018-04-27T02:29:32.235Z,12.63
2018-04-27T02:31:59.836Z,12.63
2018-04-27T02:34:27.381Z,12.20
2018-04-27T02:36:54.948Z,11.93
2018-04-27T02:39:22.488Z,11.70
2018-04-27T02:41:50.024Z,12.03
2018-04-27T02:44:17.608Z,11.13
2018-04-27T02:46:45.147Z,12.23
2018-04-27T02:49:12.680Z,11.93
2018-04-27T02:51:40.261Z,12.63
2018-04-27T02:54:07.801Z,13.57
2018-04-27T02:56:35.351Z,13.37
2018-04-27T02:59:02.908Z,14.23
2018-04-27T03:01:30.448Z,15.13
2018-04-27T03:03:58.029Z,16.83
2018-04-27T03:06:25.559Z,15.57
2018-04-27T03:08:53.112Z,15.03
2018-04-27T03:11:20.683Z,14.30
2018-04-27T03:13:48.274Z,16.27
2018-04-27T03:16:15.807Z,14.60
2018-04-27T03:18:43.352Z,16.10
2018-04-27T03:21:10.899Z,16.23
2018-04-27T03:23:38.465Z,14.50
2018-04-27T03:26:06.005Z,13.20
2018-04-27T03:28:33.599Z,14.03
2018-04-27T03:31:01.175Z,15.97
2018-04-27T03:33:28.705Z,13.40
2018-04-27T03:35:56.238Z,15.00
2018-04-27T03:38:23.831Z,14.43
2018-04-27T03:40:51.376Z,16.67
2018-04-27T03:43:18.969Z,15.20
2018-04-27T03:45:46.509Z,14.97
2018-04-27T03:48:14.058Z,14.43
2018-04-27T03:50:41.654Z,13.90
2018-04-27T03:53:09.249Z,16.87
2018-04-27T03:55:36.833Z,16.20
2018-04-27T03:58:04.379Z,14.70
2018-04-27T04:03:45.194Z,13.83
2018-04-27T04:06:12.773Z,14.23
2018-04-27T04:08:40.412Z,13.80
2018-04-27T04:11:08.011Z,11.63
2018-04-27T04:13:35.653Z,12.30
2018-04-27T04:16:03.150Z,12.23
2018-04-27T04:18:30.728Z,12.93
2018-04-27T04:20:58.282Z,10.80
2018-04-27T04:23:25.864Z,12.70
2018-04-27T04:25:53.408Z,13.20
2018-04-27T04:28:20.948Z,13.13
2018-04-27T04:30:48.539Z,12.70
2018-04-27T04:33:16.155Z,12.93
2018-04-27T04:35:43.739Z,13.27
2018-04-27T04:38:11.287Z,12.70
2018-04-27T04:40:38.825Z,13.00
2018-04-27T04:43:06.363Z,14.63
2018-04-27T04:45:33.903Z,16.77
2018-04-27T04:48:01.443Z,15.03
2018-04-27T04:50:29.019Z,14.97
2018-04-27T04:52:56.572Z,14.03
2018-04-27T04:55:24.126Z,13.97
2018-04-27T04:57:51.673Z,14.83
2018-04-27T05:00:19.280Z,13.03
2018-04-27T05:02:46.939Z,12.00
2018-04-27T05:05:14.444Z,13.77
2018-04-27T05:07:41.982Z,16.83
2018-04-27T05:10:09.536Z,11.50
2018-04-27T05:12:37.143Z,10.53
2018-04-27T05:15:04.690Z,9.00
2018-04-27T05:17:32.225Z,8.67
2018-04-27T05:19:59.218Z,9.07
2018-04-27T05:22:26.764Z,7.90
2018-04-27T05:24:54.315Z,8.53
2018-04-27T05:27:21.844Z,7.80
2018-04-27T05:29:49.427Z,9.13
2018-04-27T05:32:16.935Z,8.10
2018-04-27T05:34:44.465Z,7.60
2018-04-27T05:37:12.025Z,7.50
2018-04-27T05:39:39.595Z,8.93
2018-04-27T05:42:07.123Z,7.30
2018-04-27T05:44:34.728Z,6.73
2018-04-27T05:47:02.282Z,7.30
2018-04-27T05:49:29.992Z,7.37
2018-04-27T05:51:57.862Z,8.40
2018-04-27T05:54:25.471Z,7.00
2018-04-27T05:56:53.026Z,7.50
2018-04-27T05:59:20.559Z,8.20
2018-04-27T06:01:48.091Z,7.70
2018-04-27T06:04:15.631Z,7.30
2018-04-27T06:06:43.208Z,6.80
2018-04-27T06:09:11.507Z,6.70
2018-04-27T06:11:39.038Z,7.50
2018-04-27T06:14:06.572Z,7.23
2018-04-27T06:16:34.123Z,7.00
2018-04-27T06:19:01.699Z,7.30
2018-04-27T06:21:29.237Z,7.70
2018-04-27T06:23:56.919Z,6.93
2018-04-27T06:26:24.450Z,6.97
2018-04-27T06:28:52.784Z,6.83
2018-04-27T06:31:20.321Z,6.67
2018-04-27T06:33:47.913Z,7.33
2018-04-27T06:36:15.475Z,7.70
2018-04-27T06:38:43.003Z,7.60
2018-04-27T06:41:10.543Z,7.20
2018-04-27T06:43:38.074Z,7.83
2018-04-27T06:46:05.611Z,7.50
2018-04-27T06:48:33.144Z,7.50
2018-04-27T06:51:00.695Z,8.17
2018-04-27T06:53:28.223Z,7.53
2018-04-27T06:55:55.816Z,8.23
2018-04-27T06:58:23.346Z,7.60
2018-04-27T07:00:50.899Z,7.20
2018-04-27T07:03:18.480Z,7.63
2018-04-27T07:05:46.029Z,8.03
2018-04-27T07:08:13.577Z,7.63
2018-04-27T07:10:41.129Z,7.97
2018-04-27T07:13:08.712Z,8.40
2018-04-27T07:15:36.266Z,7.53
2018-04-27T07:18:03.841Z,7.60
2018-04-27T07:20:31.363Z,8.47
2018-04-27T07:22:58.900Z,8.73
2018-04-27T07:25:26.442Z,8.80
2018-04-27T07:27:54.027Z,8.90
2018-04-27T07:30:21.624Z,8.68
2018-04-27T07:32:49.170Z,8.35
2018-04-27T07:35:16.711Z,8.23
2018-04-27T07:37:44.251Z,8.80
2018-04-27T07:40:11.812Z,8.82
2018-04-27T07:42:39.385Z,9.23
2018-04-27T07:45:06.952Z,8.75
2018-04-27T07:47:34.508Z,9.00
2018-04-27T07:50:02.111Z,8.68
2018-04-27T07:52:29.675Z,8.73
2018-04-27T07:54:57.238Z,9.82
2018-04-27T07:57:24.781Z,8.45
2018-04-27T07:59:52.329Z,8.88
2018-04-27T08:02:19.894Z,8.63
2018-04-27T08:04:47.457Z,8.73
2018-04-27T08:07:15.029Z,9.00
2018-04-27T08:09:42.583Z,9.93
2018-04-27T08:12:10.201Z,11.38
2018-04-27T08:14:37.740Z,11.05
2018-04-27T08:17:05.294Z,10.43
2018-04-27T08:19:32.851Z,10.32
2018-04-27T08:22:00.461Z,9.85
2018-04-27T08:24:28.078Z,9.80
2018-04-27T08:26:55.663Z,9.75
2018-04-27T08:29:23.277Z,10.52
2018-04-27T08:31:50.835Z,10.55
2018-04-27T08:34:18.397Z,9.88
2018-04-27T08:36:45.952Z,9.93
2018-04-27T08:39:13.528Z,10.27
2018-04-27T08:41:41.124Z,10.55
2018-04-27T08:44:08.677Z,10.77
2018-04-27T08:46:36.244Z,10.23
2018-04-27T08:49:03.820Z,10.13
2018-04-27T08:51:31.437Z,10.45
2018-04-27T08:53:59.022Z,10.30
2018-04-27T08:56:26.605Z,10.23
2018-04-27T08:58:54.195Z,10.00
2018-04-27T09:01:21.801Z,10.20
2018-04-27T09:03:49.365Z,10.45
2018-04-27T09:06:16.936Z,10.52
2018-04-27T09:08:44.525Z,10.00
2018-04-27T09:11:12.133Z,11.43
2018-04-27T09:13:39.722Z,10.65
2018-04-27T09:16:07.298Z,10.93
2018-04-27T09:18:34.894Z,10.60
2018-04-27T09:21:02.460Z,9.63
2018-04-27T09:23:30.051Z,10.45
2018-04-27T09:25:57.645Z,10.23
2018-04-27T09:28:25.250Z,10.57
2018-04-27T09:30:52.840Z,10.75
2018-04-27T09:33:20.427Z,10.43
2018-04-27T09:35:48.014Z,10.00
2018-04-27T09:38:15.612Z,9.50
2018-04-27T09:40:43.171Z,9.57
2018-04-27T09:43:10.716Z,9.95
2018-04-27T09:45:38.288Z,9.85
2018-04-27T09:48:05.861Z,10.57
2018-04-27T09:50:33.488Z,10.85
2018-04-27T09:53:01.022Z,9.18
2018-04-27T09:55:28.568Z,10.05
2018-04-27T09:57:56.145Z,10.85
2018-04-27T10:00:23.741Z,9.95
2018-04-27T10:02:51.289Z,9.38
2018-04-27T10:05:18.866Z,10.32
2018-04-27T10:07:46.449Z,9.43
2018-04-27T10:10:14.007Z,9.70
2018-04-27T10:12:41.583Z,10.35
2018-04-27T10:15:09.161Z,10.60
2018-04-27T10:17:36.717Z,10.02
2018-04-27T10:20:04.336Z,9.90
2018-04-27T10:22:31.942Z,10.38
2018-04-27T10:24:59.553Z,10.80
2018-04-27T10:27:27.140Z,10.50
2018-04-27T10:29:54.680Z,10.73
2018-04-27T10:32:22.271Z,10.45
2018-04-27T10:34:49.917Z,9.57
2018-04-27T10:37:17.492Z,10.45
2018-04-27T10:39:45.035Z,10.25
2018-04-27T10:42:12.576Z,10.20
2018-04-27T10:44:40.127Z,9.05
2018-04-27T10:47:07.675Z,9.52
2018-04-27T10:49:35.221Z,10.18
2018-04-27T10:52:02.848Z,9.50
2018-04-27T10:54:30.419Z,10.13
2018-04-27T10:56:57.979Z,11.45
2018-04-27T10:59:25.604Z,9.80
2018-04-27T11:01:53.140Z,9.23
2018-04-27T11:04:20.714Z,9.23
2018-04-27T11:06:48.259Z,9.40
2018-04-27T11:09:15.859Z,9.65
2018-04-27T11:11:43.399Z,9.70
2018-04-27T11:14:10.943Z,10.07
2018-04-27T11:16:38.515Z,9.50
2018-04-27T11:19:06.060Z,9.38
2018-04-27T11:21:33.660Z,10.23
2018-04-27T11:24:01.214Z,9.35
2018-04-27T11:26:28.756Z,9.35
2018-04-27T11:28:56.293Z,9.50
2018-04-27T11:31:23.896Z,9.50
2018-04-27T11:33:52.236Z,9.07
2018-04-27T11:36:19.785Z,9.30
2018-04-27T11:38:47.370Z,10.05
2018-04-27T11:41:14.953Z,8.45
2018-04-27T11:43:42.473Z,9.30
2018-04-27T11:46:10.014Z,7.78
2018-04-27T11:48:37.596Z,9.30
2018-04-27T11:51:05.167Z,7.82
2018-04-27T11:53:32.746Z,7.28
2018-04-27T11:56:00.343Z,6.60
2018-04-27T11:58:27.907Z,10.43
2018-04-27T12:00:55.484Z,7.40
2018-04-27T12:03:23.034Z,11.12
2018-04-27T12:05:50.646Z,7.22
2018-04-27T12:08:18.184Z,9.43
2018-04-27T12:10:45.813Z,8.82
2018-04-27T12:13:13.333Z,11.27
2018-04-27T12:15:40.868Z,9.68
2018-04-27T12:18:08.760Z,7.05
2018-04-27T12:20:36.301Z,7.00
2018-04-27T12:23:03.899Z,8.65
2018-04-27T12:25:31.463Z,6.85
2018-04-27T12:27:59.008Z,7.03
2018-04-27T12:30:26.583Z,8.38
2018-04-27T12:32:54.122Z,7.45
2018-04-27T12:35:21.660Z,7.70
2018-04-27T12:37:49.232Z,7.62
2018-04-27T12:40:16.781Z,10.18
2018-04-27T12:42:44.340Z,8.48
2018-04-27T12:45:11.897Z,9.20
2018-04-27T12:47:39.508Z,9.52
2018-04-27T12:50:07.089Z,10.32
2018-04-27T12:52:34.636Z,10.60
2018-04-27T12:55:02.188Z,9.13
2018-04-27T12:57:29.785Z,8.23
2018-04-27T12:59:57.396Z,7.65
2018-04-27T13:02:24.937Z,9.35
2018-04-27T13:04:52.485Z,8.10
2018-04-27T13:07:20.089Z,9.27
2018-04-27T13:09:47.632Z,8.77
2018-04-27T13:12:15.199Z,8.40
2018-04-27T13:14:42.759Z,11.80
2018-04-27T13:17:10.355Z,9.20
2018-04-27T13:19:37.934Z,8.10
2018-04-27T13:22:05.603Z,7.80
2018-04-27T13:24:33.162Z,8.10
2018-04-27T13:27:00.716Z,7.00
2018-04-27T13:29:28.247Z,8.15
2018-04-27T13:31:55.835Z,8.75
2018-04-27T13:34:23.455Z,8.70
2018-04-27T13:36:50.995Z,9.60
2018-04-27T13:39:18.543Z,7.50
2018-04-27T13:41:46.099Z,11.83
2018-04-27T13:44:13.706Z,8.53
2018-04-27T13:46:41.246Z,8.80
2018-04-27T13:49:08.827Z,7.67
2018-04-27T13:51:36.374Z,8.47
2018-04-27T13:54:03.971Z,7.93
2018-04-27T13:56:31.500Z,8.30
2018-04-27T13:58:59.056Z,7.93
2018-04-27T14:01:26.655Z,7.20
2018-04-27T14:03:54.205Z,6.90
2018-04-27T14:06:21.751Z,7.30
2018-04-27T14:08:49.335Z,7.93
2018-04-27T14:11:16.957Z,8.47
2018-04-27T14:13:44.452Z,8.87
2018-04-27T14:16:12.020Z,8.23
2018-04-27T14:18:39.573Z,7.67
2018-04-27T14:21:07.125Z,8.37
2018-04-27T14:23:34.654Z,7.73
2018-04-27T14:26:02.223Z,8.27
2018-04-27T14:28:29.753Z,9.07
2018-04-27T14:30:58.134Z,7.50
2018-04-27T14:33:25.684Z,7.47
2018-04-27T14:35:53.238Z,8.00
2018-04-27T14:38:20.820Z,7.80
2018-04-27T14:40:48.380Z,8.23
2018-04-27T14:43:15.907Z,8.47
2018-04-27T14:45:43.481Z,8.67
2018-04-27T14:48:11.022Z,8.50
2018-04-27T14:50:38.554Z,7.47
2018-04-27T14:53:06.128Z,9.27
2018-04-27T14:55:33.684Z,8.23
2018-04-27T14:58:01.274Z,8.70
2018-04-27T15:00:28.883Z,9.23
2018-04-27T15:02:56.442Z,9.07
2018-04-27T15:05:24.001Z,10.17
2018-04-27T15:07:51.606Z,8.67
2018-04-27T15:10:19.471Z,9.37
2018-04-27T15:12:47.027Z,9.90
2018-04-27T15:15:14.881Z,9.93
2018-04-27T15:17:42.476Z,10.10
2018-04-27T15:20:10.110Z,11.57
2018-04-27T15:22:37.595Z,9.00
2018-04-27T15:25:07.326Z,8.40
2018-04-27T15:27:35.030Z,9.43
2018-04-27T15:30:05.719Z,9.07
2018-04-27T15:32:33.296Z,10.30
2018-04-27T15:35:00.845Z,9.50
2018-04-27T15:37:29.465Z,7.73
2018-04-27T15:39:57.220Z,10.80
2018-04-27T15:42:24.737Z,9.67
2018-04-27T15:44:52.275Z,11.10
2018-04-27T15:47:19.853Z,9.90
2018-04-27T15:49:47.404Z,9.00
2018-04-27T15:52:15.016Z,9.57
2018-04-27T15:54:42.598Z,9.80
2018-04-27T15:57:10.202Z,9.60
2018-04-27T15:59:37.746Z,9.70
2018-04-27T16:02:05.680Z,9.07
2018-04-27T16:04:34.181Z,9.27
2018-04-27T16:07:01.778Z,10.13
2018-04-27T16:09:29.421Z,9.90
2018-04-27T16:11:56.942Z,9.90
2018-04-27T16:14:24.512Z,9.90
2018-04-27T16:16:52.057Z,9.27
2018-04-27T16:19:19.802Z,10.53
2018-04-27T16:21:47.346Z,10.00
2018-04-27T16:24:14.897Z,10.97
2018-04-27T16:26:43.237Z,10.50
2018-04-27T16:29:10.921Z,10.73
2018-04-27T16:31:38.459Z,10.70
2018-04-27T16:34:06.014Z,10.17
2018-04-27T16:36:33.556Z,9.43
2018-04-27T16:39:01.120Z,10.27
2018-04-27T16:41:28.663Z,10.70
2018-04-27T16:43:56.312Z,10.77
2018-04-27T16:46:23.849Z,10.67
2018-04-27T16:48:51.391Z,11.00
2018-04-27T16:51:18.926Z,10.50
2018-04-27T16:53:46.471Z,10.60
2018-04-27T16:56:14.027Z,12.60
2018-04-27T16:58:41.607Z,12.90
2018-04-27T17:01:09.143Z,11.07
2018-04-27T17:03:36.717Z,11.97
2018-04-27T17:06:04.428Z,10.97
2018-04-27T17:08:32.027Z,10.57
2018-04-27T17:10:59.571Z,11.43
2018-04-27T17:13:27.185Z,11.30
2018-04-27T17:15:54.715Z,11.23
2018-04-27T17:18:22.267Z,10.50
2018-04-27T17:20:49.816Z,10.37
2018-04-27T17:23:17.364Z,10.70
2018-04-27T17:25:44.927Z,10.33
2018-04-27T17:28:12.467Z,11.17
2018-04-27T17:30:40.098Z,10.40
2018-04-27T17:33:07.636Z,10.63
2018-04-27T17:35:35.177Z,9.80
2018-04-27T17:38:02.767Z,10.63
2018-04-27T17:40:30.335Z,11.43
2018-04-27T17:42:57.887Z,14.17
2018-04-27T17:45:25.550Z,10.93
2018-04-27T17:47:53.113Z,11.13
2018-04-27T17:50:20.642Z,11.47
2018-04-27T17:52:48.176Z,11.83
2018-04-27T17:55:15.703Z,11.43
2018-04-27T17:57:43.276Z,10.97
2018-04-27T18:00:12.650Z,10.83
2018-04-27T18:02:40.202Z,11.90
2018-04-27T18:05:07.772Z,10.80
2018-04-27T18:07:35.411Z,11.50
2018-04-27T18:10:02.890Z,10.53
2018-04-27T18:12:30.453Z,10.57
2018-04-27T18:14:58.058Z,9.97
2018-04-27T18:17:25.636Z,12.75
2018-04-27T18:19:53.185Z,11.60
2018-04-27T18:22:20.787Z,12.30
2018-04-27T18:24:49.560Z,11.47
2018-04-27T18:27:17.148Z,11.10
2018-04-27T18:29:44.753Z,10.17
2018-04-27T18:32:12.346Z,11.70
2018-04-27T18:34:39.928Z,12.00
2018-04-27T18:37:07.500Z,10.37
2018-04-27T18:39:35.997Z,10.23
2018-04-27T18:42:03.556Z,10.53
2018-04-27T18:44:31.184Z,10.40
2018-04-27T18:46:58.683Z,11.37
2018-04-27T18:49:26.412Z,10.57
2018-04-27T18:52:03.532Z,10.37
2018-04-27T18:54:43.118Z,10.87
2018-04-27T18:57:10.817Z,10.40
2018-04-27T18:59:40.135Z,10.30
2018-04-27T19:02:07.727Z,10.03
2018-04-27T19:04:35.348Z,10.90
2018-04-27T19:07:03.012Z,10.53
2018-04-27T19:09:30.568Z,10.33
2018-04-27T19:11:58.131Z,10.27
2018-04-27T19:14:26.891Z,12.10
2018-04-27T19:16:54.492Z,12.00
2018-04-27T19:19:22.065Z,10.73
2018-04-27T19:21:49.700Z,12.20
2018-04-27T19:24:17.278Z,13.13
2018-04-27T19:26:44.926Z,16.77
2018-04-27T19:29:12.488Z,23.77
2018-04-27T19:31:40.107Z,22.17
2018-04-27T19:34:07.792Z,16.87
2018-04-27T19:36:35.366Z,13.40
2018-04-27T19:39:02.920Z,12.93
2018-04-27T19:41:30.470Z,10.60
2018-04-27T19:43:58.024Z,10.93
2018-04-27T19:46:25.556Z,9.90
2018-04-27T19:48:53.101Z,10.00
2018-04-27T19:51:20.675Z,10.10
2018-04-27T19:53:48.236Z,9.77
2018-04-27T19:56:15.797Z,10.57
2018-04-27T19:58:43.334Z,10.53
2018-04-27T20:01:10.880Z,10.33
2018-04-27T20:03:38.445Z,10.07
2018-04-27T20:06:06.009Z,10.47
2018-04-27T20:08:35.366Z,9.33
2018-04-27T20:11:02.988Z,9.97
2018-04-27T20:13:30.507Z,10.20
2018-04-27T20:15:58.834Z,9.43
2018-04-27T20:18:28.374Z,10.00
2018-04-27T20:20:55.936Z,10.10
2018-04-27T20:23:26.176Z,9.50
2018-04-27T20:25:54.528Z,10.13
2018-04-27T20:28:22.141Z,9.77
2018-04-27T20:30:49.748Z,10.77
2018-04-27T20:33:17.373Z,11.20
2018-04-27T20:35:44.905Z,12.10
2018-04-27T20:38:15.059Z,13.60
2018-04-27T20:40:43.614Z,11.60
2018-04-27T20:43:12.035Z,11.93
2018-04-27T20:45:39.655Z,12.27
2018-04-27T20:48:08.135Z,12.37
2018-04-27T20:50:35.699Z,10.30
2018-04-27T20:53:03.245Z,11.60
2018-04-27T20:55:31.560Z,11.33
2018-04-27T20:57:59.229Z,11.27
2018-04-27T21:00:28.493Z,11.97
2018-04-27T21:02:56.048Z,11.73
2018-04-27T21:05:23.623Z,11.40
2018-04-27T21:07:51.172Z,11.03
2018-04-27T21:10:18.758Z,10.63
2018-04-27T21:12:47.971Z,10.57
2018-04-27T21:15:15.564Z,9.47
2018-04-27T21:17:46.075Z,9.80
2018-04-27T21:20:13.616Z,9.57
2018-04-27T21:22:41.171Z,10.43
2018-04-27T21:25:09.501Z,10.30
2018-04-27T21:27:41.902Z,9.50
2018-04-27T21:30:09.526Z,9.83
2018-04-27T21:32:37.107Z,10.67
2018-04-27T21:35:04.686Z,11.97
2018-04-27T21:37:32.297Z,10.93
2018-04-27T21:40:00.601Z,10.87
2018-04-27T21:42:28.189Z,11.00
2018-04-27T21:44:59.439Z,11.43
2018-04-27T21:47:31.387Z,12.53
2018-04-27T21:50:09.947Z,12.43
2018-04-27T21:52:49.872Z,11.50
2018-04-27T21:55:17.422Z,12.00
2018-04-27T21:58:02.575Z,11.17
2018-04-27T22:00:30.927Z,10.73
2018-04-27T22:03:01.131Z,11.00
2018-04-27T22:08:50.540Z,11.23
2018-04-27T22:11:35.670Z,10.30
2018-04-27T22:14:03.265Z,10.13
2018-04-27T22:16:36.537Z,9.77
2018-04-27T22:19:04.108Z,10.00
2018-04-27T22:21:32.369Z,9.77
2018-04-27T22:24:05.764Z,9.50
2018-04-27T22:26:35.812Z,9.50
2018-04-27T22:29:05.766Z,9.83
2018-04-27T22:31:33.355Z,10.07
2018-04-27T22:34:05.536Z,9.83
2018-04-27T22:36:43.044Z,9.63
2018-04-27T22:39:16.344Z,10.43
2018-04-27T22:41:43.944Z,10.27
2018-04-27T22:44:12.863Z,10.63
2018-04-27T22:46:41.147Z,9.80
2018-04-27T22:49:11.443Z,10.67
2018-04-27T22:51:40.285Z,10.33
2018-04-27T22:57:18.111Z,9.43
2018-04-27T22:59:46.472Z,10.27
2018-04-27T23:02:19.815Z,10.37
2018-04-27T23:04:48.229Z,9.90
2018-04-27T23:07:26.034Z,11.10
2018-04-27T23:09:56.300Z,11.10
2018-04-27T23:12:24.747Z,11.17
2018-04-27T23:14:53.095Z,10.13
2018-04-27T23:17:20.706Z,11.20
2018-04-27T23:19:53.905Z,11.07
2018-04-27T23:22:33.059Z,11.03
2018-04-27T23:25:07.125Z,11.70
2018-04-27T23:27:36.613Z,11.23
2018-04-27T23:30:06.342Z,11.50
2018-04-27T23:32:33.940Z,11.27
2018-04-27T23:35:01.576Z,12.67
2018-04-27T23:37:29.176Z,13.13
2018-04-27T23:39:56.732Z,14.60
2018-04-27T23:42:24.309Z,13.87
2018-04-27T23:44:51.873Z,15.30
2018-04-27T23:47:19.467Z,14.83
2018-04-27T23:49:47.078Z,15.13
2018-04-27T23:52:14.640Z,16.17
2018-04-27T23:54:42.179Z,15.60
2018-04-27T23:57:09.725Z,16.93
2018-04-27T23:59:39.997Z,16.60
